CheckWX is a tool to help pilots better visualize weather data.  It is not intended as a substitute for an official pre-flight weather briefing.

23:21:10 UTC

KLXV METAR
Lake County Airport
Leadville, Colorado, USA
Current

28 mins ago

KLXV 142253Z AUTO 26011G34KT 10SM CLR 21/M04 A3040 RMK AO2 PK WND 28042/2232 WSHFT 2205 LTG DSNT SW SLP113 T02061039
Observed
Jul-14 @ 22:53 UTC
Wind
  • 260° at 11 KTS
  • Gusting to 34 KTS
Visibility
10 SM
Flight Rules
VFR
Cloud Levels
  • Clear skies
Temperature
21°C / 70°F
Dewpoint
-4°C / 25°F
Humidity
18%
Altimeter
30.4" Hg
Pressure
1029.42 hPa
Previous

56 mins ago

KLXV 142225Z AUTO 27017G27KT 10SM CLR 21/M01 A3039 RMK AO2 PK WND 27027/2225 WSHFT 2205 LTG DSNT SE-SW T02111006
Observed
Jul-14 @ 22:25 UTC
Wind
  • 270° at 17 KTS
  • Gusting to 27 KTS
Visibility
10 SM
Flight Rules
VFR
Cloud Levels
  • Clear skies
Temperature
21°C / 70°F
Dewpoint
-1°C / 30°F
Humidity
23%
Altimeter
30.39" Hg
Pressure
1029.12 hPa
Previous

1 hour ago

KLXV 142153Z AUTO 03008KT 10SM BKN110 18/03 A3041 RMK AO2 PK WND 29033/2057 LTG DSNT SE AND SW RAB02E14 SLP121 P0000 T01830033
Observed
Jul-14 @ 21:53 UTC
Wind
  • 030° at 8 KTS
Visibility
10 SM
Flight Rules
VFR
Cloud Levels
  • Broken at 11,000' AGL
Temperature
18°C / 64°F
Dewpoint
C / 37°F
Humidity
37%
Altimeter
30.41" Hg
Pressure
1029.82 hPa
Current Rain
0.01"